createdAt,value
2023-04-10T00:04:58.430Z,101161.59
2023-04-10T00:10:01.278Z,101152.59
2023-04-10T00:15:04.415Z,101147.50
2023-04-10T00:20:10.068Z,101141.16
2023-04-10T00:25:12.898Z,101142.16
2023-04-10T00:30:15.950Z,101132.03
2023-04-10T00:35:20.123Z,101121.13
2023-04-10T00:40:22.911Z,101124.81
2023-04-10T00:45:25.879Z,101122.31
2023-04-10T00:50:30.039Z,101112.50
2023-04-10T00:55:32.885Z,101112.91
2023-04-10T01:00:35.757Z,101104.25
2023-04-10T01:05:46.282Z,101106.53
2023-04-10T01:10:54.894Z,101106.91
2023-04-10T01:16:02.631Z,101102.41
2023-04-10T01:21:09.363Z,101097.88
2023-04-10T01:26:13.318Z,101099.06
2023-04-10T01:31:22.393Z,101098.13
2023-04-10T01:36:29.481Z,101101.81
2023-04-10T01:41:34.379Z,101104.38
2023-04-10T01:46:40.104Z,101102.34
2023-04-10T01:51:43.879Z,101097.97
2023-04-10T01:56:48.421Z,101096.38
2023-04-10T02:01:58.494Z,101087.59
2023-04-10T02:07:04.937Z,101088.00
2023-04-10T02:12:11.393Z,101080.00
2023-04-10T02:17:19.502Z,101070.09
2023-04-10T02:22:27.865Z,101062.09
2023-04-10T02:27:31.523Z,101061.03
2023-04-10T02:32:36.877Z,101053.72
2023-04-10T02:37:39.895Z,101056.50
2023-04-10T02:42:44.050Z,101050.69
2023-04-10T02:47:48.935Z,101046.44
2023-04-10T02:52:51.936Z,101055.22
2023-04-10T02:57:54.835Z,101052.22
2023-04-10T03:02:59.213Z,101054.50
2023-04-10T03:08:08.077Z,101052.38
2023-04-10T03:13:10.996Z,101042.03
2023-04-10T03:18:15.496Z,101036.13
2023-04-10T03:23:20.591Z,101048.06
2023-04-10T03:28:23.696Z,101036.41
2023-04-10T03:33:27.990Z,101037.34
2023-04-10T03:38:31.153Z,101028.72
2023-04-10T03:43:34.321Z,101019.94
2023-04-10T03:48:41.805Z,101016.41
2023-04-10T03:53:46.107Z,101013.25
2023-04-10T03:58:51.933Z,101016.94
2023-04-10T04:03:57.680Z,101015.44
2023-04-10T04:09:20.781Z,101013.25
2023-04-10T04:14:44.732Z,101013.56
2023-04-10T04:20:02.567Z,101010.97
2023-04-10T04:25:25.821Z,101010.13
2023-04-10T04:30:50.993Z,101013.69
2023-04-10T04:35:59.752Z,101013.84
2023-04-10T04:41:16.386Z,101022.16
2023-04-10T04:46:36.058Z,101021.84
2023-04-10T04:52:12.022Z,101024.13
2023-04-10T04:57:18.418Z,101026.25
2023-04-10T05:02:41.949Z,101026.66
2023-04-10T05:08:06.244Z,101026.28
2023-04-10T05:13:20.380Z,101026.91
2023-04-10T05:18:43.010Z,101022.69
2023-04-10T05:24:05.227Z,101021.19
2023-04-10T05:29:28.273Z,101030.44
2023-04-10T05:35:03.296Z,101031.53
2023-04-10T05:40:12.726Z,101029.06
2023-04-10T05:45:33.918Z,101024.56
2023-04-10T05:50:54.904Z,101025.28
2023-04-10T05:56:18.975Z,101012.34
2023-04-10T06:01:38.944Z,101010.41
2023-04-10T06:06:41.969Z,101007.44
2023-04-10T06:11:47.622Z,101003.44
2023-04-10T06:16:54.169Z,101000.53
2023-04-10T06:21:57.084Z,100991.19
2023-04-10T06:27:01.233Z,100985.78
2023-04-10T06:32:04.182Z,100975.66
2023-04-10T06:37:11.427Z,100974.13
2023-04-10T06:42:15.642Z,100971.53
2023-04-10T06:47:36.007Z,100974.13
2023-04-10T06:52:38.898Z,100971.84
2023-04-10T06:57:43.459Z,100973.16
2023-04-10T07:02:46.402Z,100974.19
2023-04-10T07:07:50.593Z,100965.63
2023-04-10T07:12:54.728Z,100962.91
2023-04-10T07:17:57.602Z,100962.41
2023-04-10T07:23:00.467Z,100964.06
2023-04-10T07:28:04.725Z,100964.59
2023-04-10T07:33:07.918Z,100954.69
2023-04-10T07:38:13.083Z,100943.59
2023-04-10T07:43:17.283Z,100946.84
2023-04-10T07:48:20.076Z,100943.13
2023-04-10T07:53:23.078Z,100931.81
2023-04-10T07:58:27.283Z,100935.59
2023-04-10T08:03:30.354Z,100925.19
2023-04-10T08:08:33.264Z,100911.34
2023-04-10T08:13:37.451Z,100904.88
2023-04-10T08:18:40.413Z,100892.97
2023-04-10T08:23:43.252Z,100873.63
2023-04-10T08:28:49.362Z,100866.66
2023-04-10T08:33:52.755Z,100849.91
2023-04-10T08:38:56.006Z,100848.66
2023-04-10T08:44:00.221Z,100841.59
2023-04-10T08:49:04.174Z,100835.00
2023-04-10T08:54:09.041Z,100825.00
2023-04-10T08:59:13.342Z,100832.91
2023-04-10T09:04:16.959Z,100824.28
2023-04-10T09:09:19.918Z,100818.91
2023-04-10T09:14:25.246Z,100799.97
2023-04-10T09:19:32.184Z,100803.75
2023-04-10T09:24:38.156Z,100797.09
2023-04-10T09:29:44.171Z,100782.28
2023-04-10T09:34:54.852Z,100822.13
2023-04-10T09:39:57.952Z,100764.09
2023-04-10T09:45:02.908Z,100743.84
2023-04-10T09:50:06.400Z,100758.81
2023-04-10T09:55:17.855Z,100732.25
2023-04-10T10:00:22.072Z,100741.34
2023-04-10T10:05:28.105Z,100724.56
2023-04-10T10:10:31.127Z,100718.72
2023-04-10T10:15:42.729Z,100724.22
2023-04-10T10:20:47.252Z,100722.31
2023-04-10T10:25:51.464Z,100679.78
2023-04-10T10:30:56.338Z,100694.03
2023-04-10T10:36:01.342Z,100666.72
2023-04-10T10:41:17.170Z,100658.44
2023-04-10T10:46:31.003Z,100641.91
2023-04-10T10:51:47.807Z,100652.84
2023-04-10T10:56:50.839Z,100641.78
2023-04-10T11:02:16.817Z,100632.91
2023-04-10T11:07:20.093Z,100620.88
2023-04-10T11:12:24.132Z,100623.91
2023-04-10T11:17:54.373Z,100595.16
2023-04-10T11:23:11.883Z,100587.75
2023-04-10T11:28:35.182Z,100569.28
2023-04-10T11:33:39.457Z,100568.69
2023-04-10T11:38:42.346Z,100557.13
2023-04-10T11:43:45.343Z,100550.72
2023-04-10T11:48:53.420Z,100530.31
2023-04-10T11:54:09.571Z,100527.56
2023-04-10T11:59:14.407Z,100532.31
2023-04-10T12:04:20.857Z,100517.38
2023-04-10T12:09:24.766Z,100513.22
2023-04-10T12:14:33.007Z,100492.69
2023-04-10T12:19:39.388Z,100489.50
2023-04-10T12:24:43.871Z,100478.44
2023-04-10T12:29:47.426Z,100472.00
2023-04-10T12:34:57.487Z,100471.97
2023-04-10T12:40:07.064Z,100472.63
2023-04-10T12:45:13.785Z,100448.28
2023-04-10T12:50:20.867Z,100429.53
2023-04-10T12:55:23.794Z,100439.91
2023-04-10T13:00:26.694Z,100448.53
2023-04-10T13:05:31.114Z,100397.22
2023-04-10T13:10:33.966Z,100385.84
2023-04-10T13:15:36.857Z,100379.94
2023-04-10T13:20:42.146Z,100383.59
2023-04-10T13:25:45.044Z,100344.22
2023-04-10T13:30:47.945Z,100359.66
2023-04-10T13:35:52.125Z,100333.88
2023-04-10T13:40:55.080Z,100332.84
2023-04-10T13:45:57.926Z,100299.94
2023-04-10T13:51:02.074Z,100285.78
2023-04-10T13:56:06.445Z,100281.78
2023-04-10T14:01:09.315Z,100281.47
2023-04-10T14:06:14.224Z,100281.44
2023-04-10T14:11:17.173Z,100252.88
2023-04-10T14:16:20.066Z,100254.75
2023-04-10T14:21:24.374Z,100251.69
2023-04-10T14:26:27.279Z,100220.22
2023-04-10T14:31:30.471Z,100223.72
2023-04-10T14:36:34.645Z,100204.38
2023-04-10T14:41:37.441Z,100178.75
2023-04-10T14:46:40.227Z,100168.72
2023-04-10T14:51:48.459Z,100155.34
2023-04-10T14:56:51.485Z,100162.38
2023-04-10T15:01:54.813Z,100154.22
2023-04-10T15:06:59.112Z,100138.13
2023-04-10T15:12:02.194Z,100148.91
2023-04-10T15:17:05.300Z,100119.06
2023-04-10T15:22:09.476Z,100111.59
2023-04-10T15:27:12.256Z,100108.75
2023-04-10T15:32:15.069Z,100090.22
2023-04-10T15:37:19.232Z,100070.41
2023-04-10T15:42:22.056Z,100056.31
2023-04-10T15:47:24.899Z,100049.22
2023-04-10T15:52:31.727Z,100046.63
2023-04-10T15:57:34.705Z,100041.72
2023-04-10T16:02:37.831Z,100031.63
2023-04-10T16:07:43.773Z,100019.66
2023-04-10T16:12:46.902Z,100012.50
2023-04-10T16:17:49.825Z,100005.34
2023-04-10T16:22:54.566Z,99996.44
2023-04-10T16:27:57.646Z,100005.09
2023-04-10T16:33:00.570Z,100010.69
2023-04-10T16:38:04.834Z,100027.28
2023-04-10T16:43:07.675Z,100014.91
2023-04-10T16:48:10.717Z,99993.94
2023-04-10T16:53:14.949Z,99994.75
2023-04-10T16:58:17.752Z,99990.69
2023-04-10T17:03:20.651Z,99977.47
2023-04-10T17:08:24.882Z,99969.38
2023-04-10T17:13:27.817Z,99966.84
2023-04-10T17:18:30.805Z,99948.22
2023-04-10T17:23:34.987Z,99942.28
2023-04-10T17:28:37.839Z,99916.06
2023-04-10T17:33:41.781Z,99919.28
2023-04-10T17:38:46.027Z,99907.41
2023-04-10T17:43:49.509Z,99890.19
2023-04-10T17:48:52.497Z,99885.41
2023-04-10T17:53:56.947Z,99872.41
2023-04-10T17:59:00.593Z,99855.50
2023-04-10T18:04:04.478Z,99844.81
2023-04-10T18:09:08.804Z,99851.72
2023-04-10T18:14:11.668Z,99832.97
2023-04-10T18:19:14.546Z,99828.38
2023-04-10T18:24:18.824Z,99827.38
2023-04-10T18:29:22.676Z,99836.66
2023-04-10T18:34:25.484Z,99825.84
2023-04-10T18:39:29.631Z,99821.09
2023-04-10T18:44:34.507Z,99829.22
2023-04-10T18:49:37.667Z,99824.31
2023-04-10T18:54:41.941Z,99818.06
2023-04-10T18:59:45.235Z,99828.22
2023-04-10T19:04:48.370Z,99823.47
2023-04-10T19:09:53.087Z,99827.63
2023-04-10T19:14:55.940Z,99818.06
2023-04-10T19:20:00.406Z,99823.81
2023-04-10T19:25:04.784Z,99833.34
2023-04-10T19:30:09.035Z,99849.63
2023-04-10T19:35:11.884Z,99849.06
2023-04-10T19:40:16.369Z,99841.91
2023-04-10T19:45:20.415Z,99832.72
2023-04-10T19:50:23.489Z,99848.06
2023-04-10T19:55:28.525Z,99856.97
2023-04-10T20:00:31.363Z,99884.88
2023-04-10T20:05:34.201Z,99908.66
2023-04-10T20:10:38.601Z,99901.50
2023-04-10T20:15:41.497Z,99861.75
2023-04-10T20:20:44.431Z,99843.03
2023-04-10T20:25:49.120Z,99835.53
2023-04-10T20:30:51.920Z,99822.06
2023-04-10T20:35:54.837Z,99802.28
2023-04-10T20:40:59.108Z,99782.84
2023-04-10T20:46:04.038Z,99778.75
2023-04-10T20:51:07.510Z,99762.81
2023-04-10T20:56:11.920Z,99773.84
2023-04-10T21:01:14.795Z,99758.53
2023-04-10T21:06:18.197Z,99764.03
2023-04-10T21:11:22.712Z,99771.47
2023-04-10T21:16:25.522Z,99762.69
2023-04-10T21:21:28.349Z,99772.78
2023-04-10T21:26:32.573Z,99798.47
2023-04-10T21:31:35.551Z,99796.94
2023-04-10T21:36:39.430Z,99807.28
2023-04-10T21:41:45.066Z,99801.97
2023-04-10T21:46:47.926Z,99810.63
2023-04-10T21:51:50.774Z,99790.56
2023-04-10T21:56:54.945Z,99792.13
2023-04-10T22:01:57.823Z,99777.81
2023-04-10T22:07:00.653Z,99780.69
2023-04-10T22:12:05.104Z,99771.38
2023-04-10T22:17:08.111Z,99756.94
2023-04-10T22:22:11.091Z,99756.88
2023-04-10T22:27:15.333Z,99783.53
2023-04-10T22:32:18.150Z,99771.34
2023-04-10T22:37:20.914Z,99749.41
2023-04-10T22:42:25.180Z,99749.06
2023-04-10T22:47:28.120Z,99724.47
2023-04-10T22:52:30.939Z,99717.84
2023-04-10T22:57:35.325Z,99701.47
2023-04-10T23:02:38.205Z,99727.56
2023-04-10T23:07:41.165Z,99702.38
2023-04-10T23:12:45.355Z,99700.44
2023-04-10T23:17:48.222Z,99712.47
2023-04-10T23:22:51.114Z,99724.03
2023-04-10T23:27:55.534Z,99655.81
2023-04-10T23:32:58.682Z,99625.97
2023-04-10T23:38:01.760Z,99638.44
2023-04-10T23:43:06.307Z,99606.94
2023-04-10T23:48:11.678Z,99605.53
2023-04-10T23:53:14.788Z,99600.66
2023-04-10T23:58:19.038Z,99603.22
